Crystal Springs, Nevada
Current Conditions -  °F | °C
As of 4:58 AM on Thursday 30 Oct 2014 (Local Time) from KINS Reporting Station
Clear Clear  
Wind Chill: 45°   Ceiling: Unl
Heat Index: 45°   Visibility: 10mi
Dew Point: 11°   Wind: 2mph
Humidity: 25%   Direction: 310°NW
Pressure: 30.12"   Gusts: NA
Location:  37.7776°N, 115.121°W
Report Text: KINS 301158Z AUTO 31002KT 10SM CLR 07/M11 A3012 RMK AO2 SLP170 T00731115 10118 20066 57005 $
Loading
Personal Weather Stations






























Interactive Weather Map
Tropical Storm Tracking
New forecast layout! Learn more

10-Day Weather Forecast

Advertisements
Track Severe Weather on mobile